sensor_id;sensor_type;location;lat;lon;timestamp;P1;durP1;ratioP1;P2;durP2;ratioP2
68432;SDS011;55412;51.350;17.056;2022-12-11T00:00:45;39.15;;;14.25;;
68432;SDS011;55412;51.350;17.056;2022-12-11T00:03:10;43.87;;;16.23;;
68432;SDS011;55412;51.350;17.056;2022-12-11T00:05:40;40.90;;;14.85;;
68432;SDS011;55412;51.350;17.056;2022-12-11T00:08:06;34.88;;;13.98;;
68432;SDS011;55412;51.350;17.056;2022-12-11T00:10:32;42.67;;;16.63;;
68432;SDS011;55412;51.350;17.056;2022-12-11T00:12:58;34.90;;;13.93;;
68432;SDS011;55412;51.350;17.056;2022-12-11T00:15:24;35.23;;;13.23;;
68432;SDS011;55412;51.350;17.056;2022-12-11T00:17:50;38.53;;;13.85;;
68432;SDS011;55412;51.350;17.056;2022-12-11T00:20:16;35.40;;;12.85;;
68432;SDS011;55412;51.350;17.056;2022-12-11T00:22:42;41.17;;;14.90;;
68432;SDS011;55412;51.350;17.056;2022-12-11T00:25:08;31.92;;;13.38;;
68432;SDS011;55412;51.350;17.056;2022-12-11T00:27:35;37.60;;;13.53;;
68432;SDS011;55412;51.350;17.056;2022-12-11T00:30:01;37.83;;;13.25;;
68432;SDS011;55412;51.350;17.056;2022-12-11T00:32:27;33.67;;;14.07;;
68432;SDS011;55412;51.350;17.056;2022-12-11T00:34:54;34.40;;;12.88;;
68432;SDS011;55412;51.350;17.056;2022-12-11T00:37:19;35.13;;;12.85;;
68432;SDS011;55412;51.350;17.056;2022-12-11T00:39:46;33.37;;;13.60;;
68432;SDS011;55412;51.350;17.056;2022-12-11T00:42:12;39.17;;;13.60;;
68432;SDS011;55412;51.350;17.056;2022-12-11T00:44:38;37.63;;;13.60;;
68432;SDS011;55412;51.350;17.056;2022-12-11T00:47:03;38.20;;;14.90;;
68432;SDS011;55412;51.350;17.056;2022-12-11T00:49:30;45.37;;;14.93;;
68432;SDS011;55412;51.350;17.056;2022-12-11T00:51:56;58.45;;;19.00;;
68432;SDS011;55412;51.350;17.056;2022-12-11T00:54:22;39.35;;;14.43;;
68432;SDS011;55412;51.350;17.056;2022-12-11T00:56:47;39.00;;;14.30;;
68432;SDS011;55412;51.350;17.056;2022-12-11T00:59:14;36.38;;;14.25;;
68432;SDS011;55412;51.350;17.056;2022-12-11T01:01:41;40.00;;;14.73;;
68432;SDS011;55412;51.350;17.056;2022-12-11T01:04:07;39.47;;;14.60;;
68432;SDS011;55412;51.350;17.056;2022-12-11T01:06:33;50.78;;;17.55;;
68432;SDS011;55412;51.350;17.056;2022-12-11T01:08:59;33.95;;;13.63;;
68432;SDS011;55412;51.350;17.056;2022-12-11T01:11:43;38.65;;;14.27;;
68432;SDS011;55412;51.350;17.056;2022-12-11T01:14:10;32.70;;;12.43;;
68432;SDS011;55412;51.350;17.056;2022-12-11T01:16:36;34.63;;;12.27;;
68432;SDS011;55412;51.350;17.056;2022-12-11T01:19:03;34.78;;;13.77;;
68432;SDS011;55412;51.350;17.056;2022-12-11T01:21:29;31.33;;;12.82;;
68432;SDS011;55412;51.350;17.056;2022-12-11T01:23:55;33.42;;;11.30;;
68432;SDS011;55412;51.350;17.056;2022-12-11T01:26:21;29.37;;;11.57;;
68432;SDS011;55412;51.350;17.056;2022-12-11T01:28:50;34.65;;;12.10;;
68432;SDS011;55412;51.350;17.056;2022-12-11T01:31:17;31.90;;;12.77;;
68432;SDS011;55412;51.350;17.056;2022-12-11T01:33:44;31.33;;;11.43;;
68432;SDS011;55412;51.350;17.056;2022-12-11T01:36:11;35.45;;;12.75;;
68432;SDS011;55412;51.350;17.056;2022-12-11T01:38:43;32.77;;;12.47;;
68432;SDS011;55412;51.350;17.056;2022-12-11T01:41:11;33.30;;;12.25;;
68432;SDS011;55412;51.350;17.056;2022-12-11T01:46:40;31.95;;;12.88;;
68432;SDS011;55412;51.350;17.056;2022-12-11T01:49:08;31.58;;;13.82;;
68432;SDS011;55412;51.350;17.056;2022-12-11T01:51:39;30.40;;;11.33;;
68432;SDS011;55412;51.350;17.056;2022-12-11T01:54:16;31.83;;;11.70;;
68432;SDS011;55412;51.350;17.056;2022-12-11T01:56:46;50.80;;;16.45;;
68432;SDS011;55412;51.350;17.056;2022-12-11T01:59:15;35.17;;;13.05;;
68432;SDS011;55412;51.350;17.056;2022-12-11T02:01:47;37.55;;;13.55;;
68432;SDS011;55412;51.350;17.056;2022-12-11T02:04:18;32.60;;;12.33;;
68432;SDS011;55412;51.350;17.056;2022-12-11T02:06:45;38.05;;;12.45;;
68432;SDS011;55412;51.350;17.056;2022-12-11T02:09:16;34.55;;;12.85;;
68432;SDS011;55412;51.350;17.056;2022-12-11T02:12:07;33.20;;;12.48;;
68432;SDS011;55412;51.350;17.056;2022-12-11T02:14:58;34.15;;;12.32;;
68432;SDS011;55412;51.350;17.056;2022-12-11T02:20:47;35.28;;;13.43;;
68432;SDS011;55412;51.350;17.056;2022-12-11T02:29:17;40.00;;;13.18;;
68432;SDS011;55412;51.350;17.056;2022-12-11T02:34:27;32.38;;;11.60;;
68432;SDS011;55412;51.350;17.056;2022-12-11T02:37:11;31.30;;;10.90;;
68432;SDS011;55412;51.350;17.056;2022-12-11T02:39:44;26.88;;;11.10;;
68432;SDS011;55412;51.350;17.056;2022-12-11T02:42:11;31.27;;;11.80;;
68432;SDS011;55412;51.350;17.056;2022-12-11T02:44:40;33.80;;;11.27;;
68432;SDS011;55412;51.350;17.056;2022-12-11T02:47:10;25.17;;;9.82;;
68432;SDS011;55412;51.350;17.056;2022-12-11T02:49:39;29.25;;;11.15;;
68432;SDS011;55412;51.350;17.056;2022-12-11T02:52:09;28.27;;;10.73;;
68432;SDS011;55412;51.350;17.056;2022-12-11T02:54:38;27.67;;;10.10;;
68432;SDS011;55412;51.350;17.056;2022-12-11T02:57:13;26.47;;;10.80;;
68432;SDS011;55412;51.350;17.056;2022-12-11T02:59:47;23.45;;;7.75;;
68432;SDS011;55412;51.350;17.056;2022-12-11T03:02:13;27.05;;;10.85;;
68432;SDS011;55412;51.350;17.056;2022-12-11T03:04:41;25.70;;;8.95;;
68432;SDS011;55412;51.350;17.056;2022-12-11T03:07:17;30.77;;;10.40;;
68432;SDS011;55412;51.350;17.056;2022-12-11T03:09:49;25.57;;;9.20;;
68432;SDS011;55412;51.350;17.056;2022-12-11T03:12:20;28.40;;;10.23;;
68432;SDS011;55412;51.350;17.056;2022-12-11T03:14:53;33.50;;;11.60;;
68432;SDS011;55412;51.350;17.056;2022-12-11T03:20:38;35.05;;;12.60;;
68432;SDS011;55412;51.350;17.056;2022-12-11T03:23:11;42.43;;;14.07;;
68432;SDS011;55412;51.350;17.056;2022-12-11T03:25:54;34.40;;;11.02;;
68432;SDS011;55412;51.350;17.056;2022-12-11T03:31:39;33.97;;;12.25;;
68432;SDS011;55412;51.350;17.056;2022-12-11T03:34:15;36.72;;;12.60;;
68432;SDS011;55412;51.350;17.056;2022-12-11T03:36:52;36.70;;;12.40;;
68432;SDS011;55412;51.350;17.056;2022-12-11T03:39:26;33.85;;;12.05;;
68432;SDS011;55412;51.350;17.056;2022-12-11T03:41:59;33.47;;;10.48;;
68432;SDS011;55412;51.350;17.056;2022-12-11T03:44:28;32.75;;;11.93;;
68432;SDS011;55412;51.350;17.056;2022-12-11T03:46:56;31.92;;;11.73;;
68432;SDS011;55412;51.350;17.056;2022-12-11T03:49:26;36.33;;;12.53;;
68432;SDS011;55412;51.350;17.056;2022-12-11T03:51:59;33.17;;;11.80;;
68432;SDS011;55412;51.350;17.056;2022-12-11T03:54:27;24.15;;;9.98;;
68432;SDS011;55412;51.350;17.056;2022-12-11T03:56:55;29.33;;;10.77;;
68432;SDS011;55412;51.350;17.056;2022-12-11T03:59:23;32.20;;;11.00;;
68432;SDS011;55412;51.350;17.056;2022-12-11T04:01:49;28.10;;;10.87;;
68432;SDS011;55412;51.350;17.056;2022-12-11T04:04:16;27.58;;;10.38;;
68432;SDS011;55412;51.350;17.056;2022-12-11T04:06:42;32.38;;;11.93;;
68432;SDS011;55412;51.350;17.056;2022-12-11T04:09:08;30.52;;;11.05;;
68432;SDS011;55412;51.350;17.056;2022-12-11T04:11:34;28.70;;;11.00;;
68432;SDS011;55412;51.350;17.056;2022-12-11T04:14:01;31.40;;;11.67;;
68432;SDS011;55412;51.350;17.056;2022-12-11T04:16:48;27.60;;;11.00;;
68432;SDS011;55412;51.350;17.056;2022-12-11T04:19:14;28.35;;;11.43;;
68432;SDS011;55412;51.350;17.056;2022-12-11T04:21:59;31.30;;;11.55;;
68432;SDS011;55412;51.350;17.056;2022-12-11T04:24:45;28.52;;;11.15;;
68432;SDS011;55412;51.350;17.056;2022-12-11T04:27:16;28.23;;;10.13;;
68432;SDS011;55412;51.350;17.056;2022-12-11T04:30:07;28.77;;;10.93;;
68432;SDS011;55412;51.350;17.056;2022-12-11T04:32:36;35.22;;;12.27;;
68432;SDS011;55412;51.350;17.056;2022-12-11T04:35:03;25.88;;;10.60;;
68432;SDS011;55412;51.350;17.056;2022-12-11T04:37:32;29.15;;;10.10;;
68432;SDS011;55412;51.350;17.056;2022-12-11T04:39:58;26.07;;;10.37;;
68432;SDS011;55412;51.350;17.056;2022-12-11T04:42:24;29.35;;;10.48;;
68432;SDS011;55412;51.350;17.056;2022-12-11T04:44:50;26.75;;;9.75;;
68432;SDS011;55412;51.350;17.056;2022-12-11T04:47:16;25.35;;;10.27;;
68432;SDS011;55412;51.350;17.056;2022-12-11T04:49:42;27.85;;;11.18;;
68432;SDS011;55412;51.350;17.056;2022-12-11T04:52:08;28.27;;;11.67;;
68432;SDS011;55412;51.350;17.056;2022-12-11T04:54:34;25.63;;;10.95;;
68432;SDS011;55412;51.350;17.056;2022-12-11T04:57:00;28.45;;;10.63;;
68432;SDS011;55412;51.350;17.056;2022-12-11T04:59:26;28.30;;;11.32;;
68432;SDS011;55412;51.350;17.056;2022-12-11T05:01:52;28.88;;;11.30;;
68432;SDS011;55412;51.350;17.056;2022-12-11T05:04:18;26.63;;;10.80;;
68432;SDS011;55412;51.350;17.056;2022-12-11T05:06:44;25.60;;;10.18;;
68432;SDS011;55412;51.350;17.056;2022-12-11T05:09:13;31.27;;;10.45;;
68432;SDS011;55412;51.350;17.056;2022-12-11T05:11:39;26.25;;;10.02;;
68432;SDS011;55412;51.350;17.056;2022-12-11T05:14:06;24.20;;;9.63;;
68432;SDS011;55412;51.350;17.056;2022-12-11T05:16:32;23.77;;;10.23;;
68432;SDS011;55412;51.350;17.056;2022-12-11T05:18:58;23.23;;;8.88;;
68432;SDS011;55412;51.350;17.056;2022-12-11T05:21:24;25.20;;;10.35;;
68432;SDS011;55412;51.350;17.056;2022-12-11T05:23:50;22.20;;;8.65;;
68432;SDS011;55412;51.350;17.056;2022-12-11T05:26:17;20.50;;;8.30;;
68432;SDS011;55412;51.350;17.056;2022-12-11T05:28:45;26.25;;;9.65;;
68432;SDS011;55412;51.350;17.056;2022-12-11T05:31:18;24.33;;;8.27;;
68432;SDS011;55412;51.350;17.056;2022-12-11T05:33:49;25.45;;;10.18;;
68432;SDS011;55412;51.350;17.056;2022-12-11T05:36:17;21.48;;;8.10;;
68432;SDS011;55412;51.350;17.056;2022-12-11T05:38:58;27.40;;;9.97;;
68432;SDS011;55412;51.350;17.056;2022-12-11T05:41:25;22.83;;;9.48;;
68432;SDS011;55412;51.350;17.056;2022-12-11T05:43:54;24.08;;;9.65;;
68432;SDS011;55412;51.350;17.056;2022-12-11T05:46:21;20.92;;;7.78;;
68432;SDS011;55412;51.350;17.056;2022-12-11T05:48:51;22.00;;;8.95;;
68432;SDS011;55412;51.350;17.056;2022-12-11T05:51:20;27.20;;;10.40;;
68432;SDS011;55412;51.350;17.056;2022-12-11T05:53:48;23.67;;;8.27;;
68432;SDS011;55412;51.350;17.056;2022-12-11T05:56:17;29.13;;;9.98;;
68432;SDS011;55412;51.350;17.056;2022-12-11T05:58:51;27.15;;;9.55;;
68432;SDS011;55412;51.350;17.056;2022-12-11T06:03:57;29.97;;;9.87;;
68432;SDS011;55412;51.350;17.056;2022-12-11T06:06:24;22.25;;;8.32;;
68432;SDS011;55412;51.350;17.056;2022-12-11T06:08:51;17.77;;;6.57;;
68432;SDS011;55412;51.350;17.056;2022-12-11T06:11:19;25.08;;;8.77;;
68432;SDS011;55412;51.350;17.056;2022-12-11T06:13:46;25.50;;;9.77;;
68432;SDS011;55412;51.350;17.056;2022-12-11T06:16:13;25.47;;;8.60;;
68432;SDS011;55412;51.350;17.056;2022-12-11T06:18:40;22.02;;;8.38;;
68432;SDS011;55412;51.350;17.056;2022-12-11T06:23:43;22.88;;;8.80;;
68432;SDS011;55412;51.350;17.056;2022-12-11T06:26:11;23.60;;;8.73;;
68432;SDS011;55412;51.350;17.056;2022-12-11T06:28:38;23.47;;;8.83;;
68432;SDS011;55412;51.350;17.056;2022-12-11T06:31:04;25.08;;;10.25;;
68432;SDS011;55412;51.350;17.056;2022-12-11T06:33:32;24.65;;;8.73;;
68432;SDS011;55412;51.350;17.056;2022-12-11T06:36:06;19.90;;;8.77;;
68432;SDS011;55412;51.350;17.056;2022-12-11T06:38:36;20.35;;;8.73;;
68432;SDS011;55412;51.350;17.056;2022-12-11T06:41:03;24.90;;;9.67;;
68432;SDS011;55412;51.350;17.056;2022-12-11T06:43:31;21.15;;;8.55;;
68432;SDS011;55412;51.350;17.056;2022-12-11T06:46:09;27.92;;;10.02;;
68432;SDS011;55412;51.350;17.056;2022-12-11T06:48:38;26.17;;;9.63;;
68432;SDS011;55412;51.350;17.056;2022-12-11T06:51:16;25.83;;;9.07;;
68432;SDS011;55412;51.350;17.056;2022-12-11T06:53:55;21.97;;;8.77;;
68432;SDS011;55412;51.350;17.056;2022-12-11T06:56:21;23.13;;;8.77;;
68432;SDS011;55412;51.350;17.056;2022-12-11T06:58:48;22.15;;;7.60;;
68432;SDS011;55412;51.350;17.056;2022-12-11T07:03:53;22.40;;;8.32;;
68432;SDS011;55412;51.350;17.056;2022-12-11T07:06:21;27.77;;;9.40;;
68432;SDS011;55412;51.350;17.056;2022-12-11T07:08:49;20.83;;;7.03;;
68432;SDS011;55412;51.350;17.056;2022-12-11T07:11:16;35.72;;;12.43;;
68432;SDS011;55412;51.350;17.056;2022-12-11T07:13:43;44.33;;;18.08;;
68432;SDS011;55412;51.350;17.056;2022-12-11T07:16:11;32.33;;;11.75;;
68432;SDS011;55412;51.350;17.056;2022-12-11T07:18:40;31.57;;;12.23;;
68432;SDS011;55412;51.350;17.056;2022-12-11T07:21:11;47.22;;;15.52;;
68432;SDS011;55412;51.350;17.056;2022-12-11T07:23:38;31.42;;;13.02;;
68432;SDS011;55412;51.350;17.056;2022-12-11T07:26:05;27.05;;;9.63;;
68432;SDS011;55412;51.350;17.056;2022-12-11T07:28:34;31.85;;;11.20;;
68432;SDS011;55412;51.350;17.056;2022-12-11T07:31:07;25.03;;;11.27;;
68432;SDS011;55412;51.350;17.056;2022-12-11T07:33:36;26.35;;;10.85;;
68432;SDS011;55412;51.350;17.056;2022-12-11T07:36:03;29.30;;;12.05;;
68432;SDS011;55412;51.350;17.056;2022-12-11T07:38:31;30.30;;;12.23;;
68432;SDS011;55412;51.350;17.056;2022-12-11T07:41:01;26.17;;;10.77;;
68432;SDS011;55412;51.350;17.056;2022-12-11T07:43:32;25.93;;;10.40;;
68432;SDS011;55412;51.350;17.056;2022-12-11T07:46:00;24.85;;;9.00;;
68432;SDS011;55412;51.350;17.056;2022-12-11T07:48:28;30.98;;;11.98;;
68432;SDS011;55412;51.350;17.056;2022-12-11T07:50:54;32.08;;;11.60;;
68432;SDS011;55412;51.350;17.056;2022-12-11T07:53:20;33.72;;;12.35;;
68432;SDS011;55412;51.350;17.056;2022-12-11T07:55:46;30.73;;;10.73;;
68432;SDS011;55412;51.350;17.056;2022-12-11T07:58:12;23.52;;;8.77;;
68432;SDS011;55412;51.350;17.056;2022-12-11T08:00:38;28.67;;;11.05;;
68432;SDS011;55412;51.350;17.056;2022-12-11T08:03:04;28.73;;;10.70;;
68432;SDS011;55412;51.350;17.056;2022-12-11T08:05:30;24.75;;;10.07;;
68432;SDS011;55412;51.350;17.056;2022-12-11T08:07:56;22.10;;;8.27;;
68432;SDS011;55412;51.350;17.056;2022-12-11T08:10:22;36.95;;;11.85;;
68432;SDS011;55412;51.350;17.056;2022-12-11T08:12:48;29.27;;;11.05;;
68432;SDS011;55412;51.350;17.056;2022-12-11T08:15:14;138.38;;;46.88;;
68432;SDS011;55412;51.350;17.056;2022-12-11T08:17:40;283.33;;;96.07;;
68432;SDS011;55412;51.350;17.056;2022-12-11T08:20:06;306.00;;;100.68;;
68432;SDS011;55412;51.350;17.056;2022-12-11T08:22:33;174.85;;;65.32;;
68432;SDS011;55412;51.350;17.056;2022-12-11T08:24:59;319.17;;;117.63;;
68432;SDS011;55412;51.350;17.056;2022-12-11T08:27:25;192.90;;;66.15;;
68432;SDS011;55412;51.350;17.056;2022-12-11T08:29:51;203.13;;;76.90;;
68432;SDS011;55412;51.350;17.056;2022-12-11T08:32:18;321.05;;;113.60;;
68432;SDS011;55412;51.350;17.056;2022-12-11T08:34:45;170.88;;;65.22;;
68432;SDS011;55412;51.350;17.056;2022-12-11T08:37:11;134.38;;;42.85;;
68432;SDS011;55412;51.350;17.056;2022-12-11T08:39:37;88.57;;;28.27;;
68432;SDS011;55412;51.350;17.056;2022-12-11T08:42:04;63.60;;;20.60;;
68432;SDS011;55412;51.350;17.056;2022-12-11T08:44:31;47.40;;;14.07;;
68432;SDS011;55412;51.350;17.056;2022-12-11T08:46:57;28.40;;;9.30;;
68432;SDS011;55412;51.350;17.056;2022-12-11T08:49:23;34.65;;;10.90;;
68432;SDS011;55412;51.350;17.056;2022-12-11T08:51:49;19.88;;;6.40;;
68432;SDS011;55412;51.350;17.056;2022-12-11T08:54:15;20.77;;;6.70;;
68432;SDS011;55412;51.350;17.056;2022-12-11T08:56:41;30.88;;;10.57;;
68432;SDS011;55412;51.350;17.056;2022-12-11T08:59:07;24.83;;;7.90;;
68432;SDS011;55412;51.350;17.056;2022-12-11T09:01:33;20.38;;;7.40;;
68432;SDS011;55412;51.350;17.056;2022-12-11T09:03:59;23.73;;;9.15;;
68432;SDS011;55412;51.350;17.056;2022-12-11T09:06:26;20.93;;;8.13;;
68432;SDS011;55412;51.350;17.056;2022-12-11T09:08:57;26.80;;;9.18;;
68432;SDS011;55412;51.350;17.056;2022-12-11T09:11:28;21.52;;;8.48;;
68432;SDS011;55412;51.350;17.056;2022-12-11T09:13:57;21.75;;;9.07;;
68432;SDS011;55412;51.350;17.056;2022-12-11T09:16:25;35.15;;;11.02;;
68432;SDS011;55412;51.350;17.056;2022-12-11T09:18:53;21.10;;;7.73;;
68432;SDS011;55412;51.350;17.056;2022-12-11T09:21:22;20.73;;;7.65;;
68432;SDS011;55412;51.350;17.056;2022-12-11T09:23:54;20.42;;;8.10;;
68432;SDS011;55412;51.350;17.056;2022-12-11T09:26:24;28.90;;;9.35;;
68432;SDS011;55412;51.350;17.056;2022-12-11T09:28:51;26.30;;;9.23;;
68432;SDS011;55412;51.350;17.056;2022-12-11T09:31:19;20.53;;;8.17;;
68432;SDS011;55412;51.350;17.056;2022-12-11T09:33:47;32.05;;;9.52;;
68432;SDS011;55412;51.350;17.056;2022-12-11T09:36:15;28.58;;;8.07;;
68432;SDS011;55412;51.350;17.056;2022-12-11T09:38:41;18.10;;;6.65;;
68432;SDS011;55412;51.350;17.056;2022-12-11T09:43:46;24.07;;;8.63;;
68432;SDS011;55412;51.350;17.056;2022-12-11T09:46:22;23.77;;;8.55;;
68432;SDS011;55412;51.350;17.056;2022-12-11T09:48:49;25.48;;;9.27;;
68432;SDS011;55412;51.350;17.056;2022-12-11T09:51:20;18.70;;;6.25;;
68432;SDS011;55412;51.350;17.056;2022-12-11T09:53:52;31.95;;;9.57;;
68432;SDS011;55412;51.350;17.056;2022-12-11T09:56:24;22.77;;;8.37;;
68432;SDS011;55412;51.350;17.056;2022-12-11T10:01:47;22.95;;;5.60;;
68432;SDS011;55412;51.350;17.056;2022-12-11T10:13:02;14.45;;;6.22;;
68432;SDS011;55412;51.350;17.056;2022-12-11T10:15:38;15.68;;;6.28;;
68432;SDS011;55412;51.350;17.056;2022-12-11T10:18:20;17.23;;;6.82;;
68432;SDS011;55412;51.350;17.056;2022-12-11T10:20:49;16.50;;;6.82;;
68432;SDS011;55412;51.350;17.056;2022-12-11T10:23:26;10.77;;;4.70;;
68432;SDS011;55412;51.350;17.056;2022-12-11T10:26:26;16.35;;;6.75;;
68432;SDS011;55412;51.350;17.056;2022-12-11T10:28:56;19.92;;;8.20;;
68432;SDS011;55412;51.350;17.056;2022-12-11T10:31:31;22.33;;;8.18;;
68432;SDS011;55412;51.350;17.056;2022-12-11T10:34:30;16.63;;;7.28;;
68432;SDS011;55412;51.350;17.056;2022-12-11T10:37:00;25.23;;;7.60;;
68432;SDS011;55412;51.350;17.056;2022-12-11T10:39:26;13.30;;;4.82;;
68432;SDS011;55412;51.350;17.056;2022-12-11T10:41:53;17.58;;;8.20;;
68432;SDS011;55412;51.350;17.056;2022-12-11T10:44:22;20.13;;;8.27;;
68432;SDS011;55412;51.350;17.056;2022-12-11T10:47:16;17.65;;;6.45;;
68432;SDS011;55412;51.350;17.056;2022-12-11T10:49:49;14.10;;;6.23;;
68432;SDS011;55412;51.350;17.056;2022-12-11T10:52:28;17.65;;;7.15;;
68432;SDS011;55412;51.350;17.056;2022-12-11T10:55:06;15.57;;;6.50;;
68432;SDS011;55412;51.350;17.056;2022-12-11T10:57:43;25.60;;;8.88;;
68432;SDS011;55412;51.350;17.056;2022-12-11T11:00:33;31.77;;;10.45;;
68432;SDS011;55412;51.350;17.056;2022-12-11T11:03:01;21.97;;;8.13;;
68432;SDS011;55412;51.350;17.056;2022-12-11T11:05:31;23.75;;;7.72;;
68432;SDS011;55412;51.350;17.056;2022-12-11T11:10:50;18.13;;;6.22;;
68432;SDS011;55412;51.350;17.056;2022-12-11T11:13:21;16.17;;;5.80;;
68432;SDS011;55412;51.350;17.056;2022-12-11T11:16:06;16.40;;;5.07;;
68432;SDS011;55412;51.350;17.056;2022-12-11T11:18:37;13.02;;;5.80;;
68432;SDS011;55412;51.350;17.056;2022-12-11T11:21:05;14.07;;;5.15;;
68432;SDS011;55412;51.350;17.056;2022-12-11T11:23:42;19.10;;;6.28;;
68432;SDS011;55412;51.350;17.056;2022-12-11T11:26:09;24.58;;;10.07;;
68432;SDS011;55412;51.350;17.056;2022-12-11T11:28:39;13.37;;;6.33;;
68432;SDS011;55412;51.350;17.056;2022-12-11T11:31:12;16.73;;;6.15;;
68432;SDS011;55412;51.350;17.056;2022-12-11T11:33:45;14.13;;;6.03;;
68432;SDS011;55412;51.350;17.056;2022-12-11T11:36:35;16.13;;;6.07;;
68432;SDS011;55412;51.350;17.056;2022-12-11T11:42:11;19.07;;;6.93;;
68432;SDS011;55412;51.350;17.056;2022-12-11T11:44:49;12.88;;;5.25;;
68432;SDS011;55412;51.350;17.056;2022-12-11T11:47:30;15.10;;;6.20;;
68432;SDS011;55412;51.350;17.056;2022-12-11T11:50:07;18.20;;;5.97;;
68432;SDS011;55412;51.350;17.056;2022-12-11T11:52:50;28.38;;;9.52;;
68432;SDS011;55412;51.350;17.056;2022-12-11T11:58:19;24.25;;;8.18;;
68432;SDS011;55412;51.350;17.056;2022-12-11T12:00:55;24.55;;;8.30;;
68432;SDS011;55412;51.350;17.056;2022-12-11T12:03:22;14.70;;;6.63;;
68432;SDS011;55412;51.350;17.056;2022-12-11T12:11:38;20.70;;;8.52;;
68432;SDS011;55412;51.350;17.056;2022-12-11T12:20:18;13.80;;;4.65;;
68432;SDS011;55412;51.350;17.056;2022-12-11T12:23:20;17.73;;;6.90;;
68432;SDS011;55412;51.350;17.056;2022-12-11T12:29:08;30.80;;;10.75;;
68432;SDS011;55412;51.350;17.056;2022-12-11T12:32:08;37.35;;;7.95;;
68432;SDS011;55412;51.350;17.056;2022-12-11T12:40:29;6.45;;;3.05;;
68432;SDS011;55412;51.350;17.056;2022-12-11T12:48:24;20.60;;;6.50;;
68432;SDS011;55412;51.350;17.056;2022-12-11T12:50:51;15.03;;;5.23;;
68432;SDS011;55412;51.350;17.056;2022-12-11T12:53:25;13.07;;;5.00;;
68432;SDS011;55412;51.350;17.056;2022-12-11T12:55:56;5.97;;;2.08;;
68432;SDS011;55412;51.350;17.056;2022-12-11T12:58:27;24.10;;;7.15;;
68432;SDS011;55412;51.350;17.056;2022-12-11T13:01:16;24.48;;;7.30;;
68432;SDS011;55412;51.350;17.056;2022-12-11T13:04:02;13.63;;;4.60;;
68432;SDS011;55412;51.350;17.056;2022-12-11T13:06:37;19.45;;;5.82;;
68432;SDS011;55412;51.350;17.056;2022-12-11T13:11:46;19.63;;;7.45;;
68432;SDS011;55412;51.350;17.056;2022-12-11T13:16:45;15.67;;;9.03;;
68432;SDS011;55412;51.350;17.056;2022-12-11T13:19:25;8.23;;;3.42;;
68432;SDS011;55412;51.350;17.056;2022-12-11T13:21:54;8.55;;;2.50;;
68432;SDS011;55412;51.350;17.056;2022-12-11T13:24:25;12.55;;;4.47;;
68432;SDS011;55412;51.350;17.056;2022-12-11T13:26:55;8.68;;;3.63;;
68432;SDS011;55412;51.350;17.056;2022-12-11T13:34:35;15.43;;;4.53;;
68432;SDS011;55412;51.350;17.056;2022-12-11T13:37:04;6.93;;;1.88;;
68432;SDS011;55412;51.350;17.056;2022-12-11T13:39:33;9.65;;;3.22;;
68432;SDS011;55412;51.350;17.056;2022-12-11T13:42:06;11.67;;;4.50;;
68432;SDS011;55412;51.350;17.056;2022-12-11T13:44:57;8.77;;;3.47;;
68432;SDS011;55412;51.350;17.056;2022-12-11T13:47:25;13.30;;;4.97;;
68432;SDS011;55412;51.350;17.056;2022-12-11T13:49:55;13.30;;;5.35;;
68432;SDS011;55412;51.350;17.056;2022-12-11T13:52:39;18.92;;;6.97;;
68432;SDS011;55412;51.350;17.056;2022-12-11T13:55:15;32.37;;;9.13;;
68432;SDS011;55412;51.350;17.056;2022-12-11T13:57:49;19.33;;;6.95;;
68432;SDS011;55412;51.350;17.056;2022-12-11T14:00:18;13.52;;;6.13;;
68432;SDS011;55412;51.350;17.056;2022-12-11T14:02:48;17.60;;;6.10;;
68432;SDS011;55412;51.350;17.056;2022-12-11T14:05:17;29.13;;;8.60;;
68432;SDS011;55412;51.350;17.056;2022-12-11T14:07:46;18.17;;;6.37;;
68432;SDS011;55412;51.350;17.056;2022-12-11T14:10:20;10.18;;;4.00;;
68432;SDS011;55412;51.350;17.056;2022-12-11T14:12:55;16.00;;;5.68;;
68432;SDS011;55412;51.350;17.056;2022-12-11T14:15:27;11.75;;;4.15;;
68432;SDS011;55412;51.350;17.056;2022-12-11T14:17:56;17.38;;;6.35;;
68432;SDS011;55412;51.350;17.056;2022-12-11T14:20:24;25.23;;;9.53;;
68432;SDS011;55412;51.350;17.056;2022-12-11T14:25:50;12.23;;;4.20;;
68432;SDS011;55412;51.350;17.056;2022-12-11T14:28:28;14.52;;;4.18;;
68432;SDS011;55412;51.350;17.056;2022-12-11T14:31:01;16.80;;;6.25;;
68432;SDS011;55412;51.350;17.056;2022-12-11T14:33:30;14.63;;;6.20;;
68432;SDS011;55412;51.350;17.056;2022-12-11T14:36:03;12.25;;;3.33;;
68432;SDS011;55412;51.350;17.056;2022-12-11T14:38:51;12.98;;;4.38;;
68432;SDS011;55412;51.350;17.056;2022-12-11T14:41:40;13.05;;;4.90;;
68432;SDS011;55412;51.350;17.056;2022-12-11T14:44:30;16.00;;;5.65;;
68432;SDS011;55412;51.350;17.056;2022-12-11T14:47:20;10.67;;;3.87;;
68432;SDS011;55412;51.350;17.056;2022-12-11T14:55:36;18.17;;;6.32;;
68432;SDS011;55412;51.350;17.056;2022-12-11T14:58:05;18.60;;;6.05;;
68432;SDS011;55412;51.350;17.056;2022-12-11T15:00:58;10.30;;;3.97;;
68432;SDS011;55412;51.350;17.056;2022-12-11T15:03:32;13.13;;;4.72;;
68432;SDS011;55412;51.350;17.056;2022-12-11T15:06:00;13.38;;;2.92;;
68432;SDS011;55412;51.350;17.056;2022-12-11T15:08:42;10.15;;;3.60;;
68432;SDS011;55412;51.350;17.056;2022-12-11T15:11:09;10.57;;;4.07;;
68432;SDS011;55412;51.350;17.056;2022-12-11T15:13:52;12.33;;;3.40;;
68432;SDS011;55412;51.350;17.056;2022-12-11T15:16:30;12.90;;;4.75;;
68432;SDS011;55412;51.350;17.056;2022-12-11T15:19:02;12.25;;;4.57;;
68432;SDS011;55412;51.350;17.056;2022-12-11T15:21:28;8.98;;;3.22;;
68432;SDS011;55412;51.350;17.056;2022-12-11T15:23:58;4.50;;;1.92;;
68432;SDS011;55412;51.350;17.056;2022-12-11T15:26:43;10.67;;;3.57;;
68432;SDS011;55412;51.350;17.056;2022-12-11T15:34:47;10.40;;;3.88;;
68432;SDS011;55412;51.350;17.056;2022-12-11T15:37:29;16.52;;;5.55;;
68432;SDS011;55412;51.350;17.056;2022-12-11T15:39:59;9.87;;;3.27;;
68432;SDS011;55412;51.350;17.056;2022-12-11T15:42:30;13.07;;;4.97;;
68432;SDS011;55412;51.350;17.056;2022-12-11T15:45:05;14.93;;;4.93;;
68432;SDS011;55412;51.350;17.056;2022-12-11T15:47:41;7.80;;;3.65;;
68432;SDS011;55412;51.350;17.056;2022-12-11T15:50:18;16.00;;;5.88;;
68432;SDS011;55412;51.350;17.056;2022-12-11T15:52:52;6.57;;;1.53;;
68432;SDS011;55412;51.350;17.056;2022-12-11T15:55:21;5.97;;;2.35;;
68432;SDS011;55412;51.350;17.056;2022-12-11T15:57:52;10.57;;;3.70;;
68432;SDS011;55412;51.350;17.056;2022-12-11T16:00:21;10.63;;;3.92;;
68432;SDS011;55412;51.350;17.056;2022-12-11T16:02:48;7.75;;;3.13;;
68432;SDS011;55412;51.350;17.056;2022-12-11T16:05:14;8.67;;;3.00;;
68432;SDS011;55412;51.350;17.056;2022-12-11T16:07:40;11.57;;;4.80;;
68432;SDS011;55412;51.350;17.056;2022-12-11T16:10:09;5.57;;;1.08;;
68432;SDS011;55412;51.350;17.056;2022-12-11T16:12:41;11.13;;;3.10;;
68432;SDS011;55412;51.350;17.056;2022-12-11T16:15:09;12.52;;;4.00;;
68432;SDS011;55412;51.350;17.056;2022-12-11T16:17:37;14.50;;;2.43;;
68432;SDS011;55412;51.350;17.056;2022-12-11T16:20:04;7.18;;;2.78;;